createdAt,value
2024-02-22T00:00:38.670Z,29.43
2024-02-22T00:01:38.662Z,29.48
2024-02-22T00:02:38.622Z,29.49
2024-02-22T00:03:38.596Z,29.49
2024-02-22T00:04:38.671Z,29.46
2024-02-22T00:05:38.715Z,29.49
2024-02-22T00:06:38.620Z,29.40
2024-02-22T00:07:38.670Z,29.46
2024-02-22T00:08:38.602Z,29.43
2024-02-22T00:09:38.626Z,29.46
2024-02-22T00:10:38.671Z,29.44
2024-02-22T00:11:38.775Z,29.44
2024-02-22T00:12:38.630Z,29.44
2024-02-22T00:13:38.635Z,29.49
2024-02-22T00:14:38.613Z,29.44
2024-02-22T00:15:38.637Z,29.46
2024-02-22T00:16:38.675Z,29.46
2024-02-22T00:17:38.669Z,29.44
2024-02-22T00:18:38.662Z,29.47
2024-02-22T00:19:38.666Z,29.52
2024-02-22T00:20:38.609Z,29.54
2024-02-22T00:21:38.651Z,29.47
2024-02-22T00:22:38.688Z,29.49
2024-02-22T00:23:38.616Z,29.50
2024-02-22T00:24:38.616Z,29.47
2024-02-22T00:25:38.668Z,29.50
2024-02-22T00:26:38.614Z,29.47
2024-02-22T00:27:38.620Z,29.47
2024-02-22T00:28:38.663Z,29.48
2024-02-22T00:29:38.641Z,29.43
2024-02-22T00:30:38.645Z,29.46
2024-02-22T00:31:38.695Z,29.47
2024-02-22T00:32:38.671Z,29.51
2024-02-22T00:33:38.690Z,29.48
2024-02-22T00:34:38.801Z,29.47
2024-02-22T00:35:38.633Z,29.45
2024-02-22T00:36:38.623Z,29.47
2024-02-22T00:37:38.831Z,29.45
2024-02-22T00:38:38.670Z,29.47
2024-02-22T00:39:38.641Z,29.48
2024-02-22T00:40:38.666Z,29.50
2024-02-22T00:41:38.632Z,29.47
2024-02-22T00:42:38.647Z,29.47
2024-02-22T00:43:38.707Z,29.47
2024-02-22T00:44:38.637Z,29.50
2024-02-22T00:45:38.653Z,29.47
2024-02-22T00:46:38.696Z,29.48
2024-02-22T00:47:38.719Z,29.45
2024-02-22T00:48:38.796Z,29.45
2024-02-22T00:49:38.880Z,29.47
2024-02-22T00:50:38.937Z,29.45
2024-02-22T00:51:38.803Z,29.47
2024-02-22T00:52:38.822Z,29.42
2024-02-22T00:53:38.832Z,29.47
2024-02-22T00:54:38.873Z,29.45
2024-02-22T00:55:38.930Z,29.41
2024-02-22T00:56:38.930Z,29.47
2024-02-22T00:57:38.982Z,29.44
2024-02-22T00:58:39.076Z,29.47
2024-02-22T00:59:39.029Z,29.47
2024-02-22T01:00:39.187Z,29.45
2024-02-22T01:01:39.111Z,29.47
2024-02-22T01:02:39.160Z,29.42
2024-02-22T01:03:39.210Z,29.44
2024-02-22T01:04:39.316Z,29.46
2024-02-22T01:05:39.417Z,29.48
2024-02-22T01:06:39.257Z,29.45
2024-02-22T01:07:39.281Z,29.48
2024-02-22T01:08:39.252Z,29.45
2024-02-22T01:09:39.257Z,29.45
2024-02-22T01:10:39.352Z,29.46
2024-02-22T01:11:39.467Z,29.48
2024-02-22T01:12:39.328Z,29.51
2024-02-22T01:13:39.365Z,29.46
2024-02-22T01:14:39.336Z,29.49
2024-02-22T01:15:39.321Z,29.46
2024-02-22T01:16:39.352Z,29.49
2024-02-22T01:17:39.384Z,29.49
2024-02-22T01:18:39.404Z,29.49
2024-02-22T01:19:39.362Z,29.46
2024-02-22T01:20:39.378Z,29.43
2024-02-22T01:21:39.398Z,29.45
2024-02-22T01:22:39.389Z,29.45
2024-02-22T01:23:39.393Z,29.46
2024-02-22T01:24:39.406Z,29.51
2024-02-22T01:25:39.440Z,29.51
2024-02-22T01:26:39.417Z,29.45
2024-02-22T01:27:39.444Z,29.46
2024-02-22T01:28:39.477Z,29.48
2024-02-22T01:29:39.475Z,29.49
2024-02-22T01:30:39.455Z,29.48
2024-02-22T01:31:39.489Z,29.46
2024-02-22T01:32:42.171Z,29.45
2024-02-22T01:33:39.539Z,29.46
2024-02-22T01:34:39.546Z,29.49
2024-02-22T01:35:39.481Z,29.50
2024-02-22T01:36:39.486Z,29.49
2024-02-22T01:37:39.522Z,29.43
2024-02-22T01:38:39.475Z,29.46
2024-02-22T01:39:39.476Z,29.49
2024-02-22T01:40:39.502Z,29.49
2024-02-22T01:41:39.497Z,29.45
2024-02-22T01:42:39.497Z,29.48
2024-02-22T01:43:39.504Z,29.50
2024-02-22T01:44:39.488Z,29.47
2024-02-22T01:45:39.493Z,29.46
2024-02-22T01:46:39.515Z,29.46
2024-02-22T01:47:39.602Z,29.47
2024-02-22T01:48:39.590Z,29.47
2024-02-22T01:49:39.512Z,29.46
2024-02-22T01:50:39.509Z,29.47
2024-02-22T01:51:39.503Z,29.50
2024-02-22T01:52:39.533Z,29.49
2024-02-22T01:53:39.491Z,29.50
2024-02-22T01:54:39.512Z,29.52
2024-02-22T01:55:39.530Z,29.53
2024-02-22T01:56:39.489Z,29.49
2024-02-22T01:57:39.476Z,29.51
2024-02-22T01:58:39.504Z,29.49
2024-02-22T01:59:39.489Z,29.50
2024-02-22T02:00:39.508Z,29.49
2024-02-22T02:01:39.534Z,29.43
2024-02-22T02:02:39.489Z,29.50
2024-02-22T02:03:39.561Z,29.51
2024-02-22T02:04:39.514Z,29.50
2024-02-22T02:05:39.484Z,29.53
2024-02-22T02:06:39.513Z,29.50
2024-02-22T02:07:39.512Z,29.49
2024-02-22T02:08:39.488Z,29.47
2024-02-22T02:09:39.492Z,29.49
2024-02-22T02:10:39.523Z,29.47
2024-02-22T02:11:39.632Z,29.47
2024-02-22T02:12:39.503Z,29.49
2024-02-22T02:13:39.575Z,29.50
2024-02-22T02:14:39.489Z,29.44
2024-02-22T02:15:39.487Z,29.48
2024-02-22T02:16:39.572Z,29.50
2024-02-22T02:17:40.086Z,29.49
2024-02-22T02:18:39.571Z,29.50
2024-02-22T02:19:39.546Z,29.54
2024-02-22T02:20:39.495Z,29.50
2024-02-22T02:21:39.498Z,29.53
2024-02-22T02:22:39.607Z,29.50
2024-02-22T02:23:39.499Z,29.49
2024-02-22T02:24:39.496Z,29.51
2024-02-22T02:25:39.563Z,29.48
2024-02-22T02:26:39.645Z,29.51
2024-02-22T02:27:39.497Z,29.48
2024-02-22T02:28:39.560Z,29.51
2024-02-22T02:29:39.526Z,29.51
2024-02-22T02:30:39.512Z,29.50
2024-02-22T02:31:39.542Z,29.48
2024-02-22T02:32:39.604Z,29.53
2024-02-22T02:33:39.609Z,29.48
2024-02-22T02:34:39.553Z,29.51
2024-02-22T02:35:39.530Z,29.51
2024-02-22T02:36:39.520Z,29.51
2024-02-22T02:37:39.543Z,29.51
2024-02-22T02:38:39.532Z,29.51
2024-02-22T02:39:39.521Z,29.53
2024-02-22T02:40:39.585Z,29.54
2024-02-22T02:41:39.529Z,29.48
2024-02-22T02:42:39.518Z,29.50
2024-02-22T02:43:39.557Z,29.47
2024-02-22T02:44:39.509Z,29.50
2024-02-22T02:45:39.521Z,29.48
2024-02-22T02:46:39.556Z,29.51
2024-02-22T02:47:39.551Z,29.48
2024-02-22T02:48:39.546Z,29.48
2024-02-22T02:49:39.575Z,29.50
2024-02-22T02:50:39.513Z,29.47
2024-02-22T02:51:39.533Z,29.50
2024-02-22T02:52:39.543Z,29.50
2024-02-22T02:53:39.510Z,29.48
2024-02-22T02:54:39.512Z,29.50
2024-02-22T02:55:39.545Z,29.51
2024-02-22T02:56:39.529Z,29.47
2024-02-22T02:57:39.517Z,29.45
2024-02-22T02:58:39.555Z,29.47
2024-02-22T02:59:39.516Z,29.47
2024-02-22T03:00:39.513Z,29.52
2024-02-22T03:01:39.611Z,29.48
2024-02-22T03:02:39.520Z,29.48
2024-02-22T03:03:39.529Z,29.50
2024-02-22T03:04:39.635Z,29.51
2024-02-22T03:05:39.684Z,29.45
2024-02-22T03:06:39.586Z,29.45
2024-02-22T03:07:39.587Z,29.46
2024-02-22T03:08:39.530Z,29.45
2024-02-22T03:09:39.533Z,29.43
2024-02-22T03:10:39.586Z,29.45
2024-02-22T03:11:39.609Z,29.48
2024-02-22T03:12:39.545Z,29.48
2024-02-22T03:13:39.542Z,29.50
2024-02-22T03:14:39.587Z,29.49
2024-02-22T03:15:39.530Z,29.50
2024-02-22T03:16:39.658Z,29.52
2024-02-22T03:17:39.587Z,29.54
2024-02-22T03:18:39.607Z,29.51
2024-02-22T03:19:39.551Z,29.43
2024-02-22T03:20:39.550Z,29.45
2024-02-22T03:21:39.565Z,29.48
2024-02-22T03:22:39.582Z,29.48
2024-02-22T03:23:39.528Z,29.48
2024-02-22T03:24:39.540Z,29.45
2024-02-22T03:25:39.537Z,29.48
2024-02-22T03:26:39.550Z,29.44
2024-02-22T03:27:39.529Z,29.46
2024-02-22T03:28:41.005Z,29.53
2024-02-22T03:29:39.537Z,29.48
2024-02-22T03:30:39.541Z,29.50
2024-02-22T03:31:39.587Z,29.49
2024-02-22T03:32:39.593Z,29.53
2024-02-22T03:33:39.589Z,29.53
2024-02-22T03:34:39.590Z,29.50
2024-02-22T03:35:39.545Z,29.52
2024-02-22T03:36:39.553Z,29.52
2024-02-22T03:37:39.614Z,29.55
2024-02-22T03:38:39.546Z,29.52
2024-02-22T03:39:39.543Z,29.46
2024-02-22T03:40:39.610Z,29.50
2024-02-22T03:41:39.598Z,29.46
2024-02-22T03:42:39.574Z,29.49
2024-02-22T03:43:39.573Z,29.46
2024-02-22T03:44:39.543Z,29.44
2024-02-22T03:45:39.552Z,29.48
2024-02-22T03:46:39.590Z,29.53
2024-02-22T03:47:39.774Z,29.50
2024-02-22T03:48:39.626Z,29.52
2024-02-22T03:49:39.581Z,29.50
2024-02-22T03:50:39.553Z,29.51
2024-02-22T03:51:39.556Z,29.49
2024-02-22T03:52:39.664Z,29.46
2024-02-22T03:53:39.554Z,29.40
2024-02-22T03:54:39.566Z,29.30
2024-02-22T03:55:39.641Z,29.36
2024-02-22T03:56:39.556Z,29.24
2024-02-22T03:57:39.568Z,29.32
2024-02-22T03:58:39.612Z,29.33
2024-02-22T03:59:39.559Z,29.29
2024-02-22T04:00:39.591Z,29.25
2024-02-22T04:01:39.627Z,29.25
2024-02-22T04:02:39.562Z,29.16
2024-02-22T04:03:39.679Z,29.22
2024-02-22T04:04:39.693Z,29.17
2024-02-22T04:05:39.733Z,29.21
2024-02-22T04:06:40.282Z,29.17
2024-02-22T04:07:39.606Z,29.15
2024-02-22T04:08:39.584Z,29.10
2024-02-22T04:09:39.618Z,29.10
2024-02-22T04:10:39.646Z,29.07
2024-02-22T04:11:39.631Z,29.00
2024-02-22T04:12:39.583Z,28.95
2024-02-22T04:13:39.623Z,29.01
2024-02-22T04:14:39.602Z,29.04
2024-02-22T04:15:39.612Z,29.00
2024-02-22T04:16:39.585Z,29.08
2024-02-22T04:17:39.661Z,29.04
2024-02-22T04:18:39.654Z,29.06
2024-02-22T04:19:39.606Z,29.07
2024-02-22T04:20:39.578Z,29.10
2024-02-22T04:21:39.612Z,29.13
2024-02-22T04:22:39.651Z,29.10
2024-02-22T04:23:39.602Z,29.06
2024-02-22T04:24:39.572Z,29.14
2024-02-22T04:25:39.613Z,29.10
2024-02-22T04:26:39.606Z,29.06
2024-02-22T04:27:39.618Z,29.05
2024-02-22T04:28:39.624Z,29.01
2024-02-22T04:29:46.833Z,28.99
2024-02-22T04:30:46.828Z,29.02
2024-02-22T04:31:54.118Z,29.02
2024-02-22T04:32:54.135Z,29.02
2024-02-22T04:33:54.145Z,29.05
2024-02-22T04:34:54.167Z,28.99
2024-02-22T04:35:54.132Z,29.01
2024-02-22T04:36:54.069Z,28.98
2024-02-22T04:37:54.124Z,28.94
2024-02-22T04:38:54.182Z,28.96
2024-02-22T04:39:54.085Z,28.92
2024-02-22T04:40:54.150Z,28.90
2024-02-22T04:41:54.089Z,28.94
2024-02-22T04:42:54.077Z,28.89
2024-02-22T04:43:54.077Z,28.85
2024-02-22T04:44:54.076Z,28.87
2024-02-22T04:45:54.076Z,28.84
2024-02-22T04:46:54.103Z,28.82
2024-02-22T04:47:54.127Z,28.79
2024-02-22T04:48:54.169Z,28.81
2024-02-22T04:49:54.083Z,28.81
2024-02-22T04:50:54.106Z,28.78
2024-02-22T04:51:54.106Z,28.77
2024-02-22T04:52:54.138Z,28.77
2024-02-22T04:53:54.086Z,28.75
2024-02-22T04:54:54.098Z,28.75
2024-02-22T04:55:54.094Z,28.74
2024-02-22T04:56:54.084Z,28.65
2024-02-22T04:57:54.102Z,28.66
2024-02-22T04:58:54.113Z,28.74
2024-02-22T04:59:54.108Z,28.71
2024-02-22T05:00:54.162Z,28.67
2024-02-22T05:01:54.155Z,28.71
2024-02-22T05:02:54.082Z,28.61
2024-02-22T05:03:54.247Z,28.68
2024-02-22T05:04:54.241Z,28.67
2024-02-22T05:05:54.261Z,28.68
2024-02-22T05:06:54.273Z,28.59
2024-02-22T05:07:54.393Z,28.59
2024-02-22T05:08:54.466Z,28.67
2024-02-22T05:09:54.486Z,28.61
2024-02-22T05:10:54.631Z,28.67
2024-02-22T05:11:54.655Z,28.63
2024-02-22T05:12:54.648Z,28.63
2024-02-22T05:13:54.800Z,28.60
2024-02-22T05:14:54.737Z,28.54
2024-02-22T05:15:54.790Z,28.60
2024-02-22T05:16:54.927Z,28.64
2024-02-22T05:17:56.023Z,28.65
2024-02-22T05:18:55.086Z,28.57
2024-02-22T05:19:55.062Z,28.57
2024-02-22T05:20:55.092Z,28.60
2024-02-22T05:21:55.165Z,28.60
2024-02-22T05:22:55.281Z,28.54
2024-02-22T05:23:55.265Z,28.54
2024-02-22T05:24:55.306Z,28.60
2024-02-22T05:25:55.428Z,28.58
2024-02-22T05:26:55.457Z,28.53
2024-02-22T05:27:55.484Z,28.50
2024-02-22T05:28:55.612Z,28.52
2024-02-22T05:29:55.600Z,28.52
2024-02-22T05:30:55.650Z,28.55
2024-02-22T05:31:55.812Z,28.56
2024-02-22T05:32:55.833Z,28.54
2024-02-22T05:33:56.011Z,28.50
2024-02-22T05:34:55.920Z,28.56
2024-02-22T05:35:55.968Z,28.55
2024-02-22T05:36:56.053Z,28.55
2024-02-22T05:37:56.148Z,28.55
2024-02-22T05:38:56.159Z,28.50
2024-02-22T05:39:56.193Z,28.55
2024-02-22T05:40:56.304Z,28.54
2024-02-22T05:41:56.323Z,28.51
2024-02-22T05:42:56.374Z,28.55
2024-02-22T05:43:56.520Z,28.52
2024-02-22T05:44:56.509Z,28.49
2024-02-22T05:45:56.562Z,28.53
2024-02-22T05:46:56.689Z,28.54
2024-02-22T05:47:56.748Z,28.54
2024-02-22T05:48:56.814Z,28.50
2024-02-22T05:49:56.866Z,28.54
2024-02-22T05:50:57.720Z,28.54
2024-02-22T05:51:56.932Z,28.52
2024-02-22T05:52:56.994Z,28.55
2024-02-22T05:53:57.054Z,28.57
2024-02-22T05:54:57.093Z,28.57
2024-02-22T05:55:57.231Z,28.58
2024-02-22T05:56:57.214Z,28.61
2024-02-22T05:57:57.280Z,28.63
2024-02-22T05:58:57.341Z,28.62
2024-02-22T05:59:57.426Z,28.67
2024-02-22T06:00:57.475Z,28.70
2024-02-22T06:01:57.583Z,28.65
2024-02-22T06:02:57.715Z,28.69
2024-02-22T06:03:57.686Z,28.69
2024-02-22T06:04:57.906Z,28.74
2024-02-22T06:05:57.818Z,28.75
2024-02-22T06:06:57.815Z,28.71
2024-02-22T06:07:57.884Z,28.74
2024-02-22T06:08:57.947Z,28.84
2024-02-22T06:09:57.997Z,28.79
2024-02-22T06:10:58.126Z,28.83
2024-02-22T06:11:58.204Z,28.85
2024-02-22T06:12:58.180Z,28.89
2024-02-22T06:13:58.275Z,28.88
2024-02-22T06:14:58.274Z,28.91
2024-02-22T06:15:58.347Z,28.90
2024-02-22T06:16:58.801Z,28.94
2024-02-22T06:17:58.558Z,28.98
2024-02-22T06:18:58.533Z,28.99
2024-02-22T06:19:58.686Z,28.98
2024-02-22T06:20:58.651Z,28.98
2024-02-22T06:21:58.728Z,28.96
2024-02-22T06:22:58.782Z,29.01
2024-02-22T06:23:58.820Z,28.96
2024-02-22T06:24:58.959Z,29.04
2024-02-22T06:25:59.024Z,29.00
2024-02-22T06:26:59.068Z,29.06
2024-02-22T06:27:59.235Z,28.99
2024-02-22T06:28:59.164Z,29.05
2024-02-22T06:29:59.222Z,29.07
2024-02-22T06:30:59.271Z,29.06
2024-02-22T06:31:59.399Z,29.15
2024-02-22T06:32:59.440Z,29.20
2024-02-22T06:33:59.582Z,29.34
2024-02-22T06:35:00.275Z,29.33
2024-02-22T06:35:59.551Z,29.37
2024-02-22T06:36:59.612Z,29.49
2024-02-22T06:37:59.903Z,29.52
2024-02-22T06:38:59.768Z,29.71
2024-02-22T06:39:59.811Z,29.80
2024-02-22T06:40:59.984Z,29.93
2024-02-22T06:41:59.943Z,30.80
2024-02-22T06:43:00.041Z,30.86
2024-02-22T06:44:00.156Z,31.10
2024-02-22T06:45:01.094Z,31.20
2024-02-22T06:46:00.078Z,31.35
2024-02-22T06:47:00.167Z,31.94
2024-02-22T06:48:00.308Z,32.22
2024-02-22T06:49:00.120Z,32.58
2024-02-22T06:50:00.217Z,33.13
2024-02-22T06:51:00.213Z,33.20
2024-02-22T06:52:00.107Z,33.59
2024-02-22T06:53:00.154Z,33.88
2024-02-22T06:54:00.152Z,34.24
2024-02-22T06:55:00.142Z,34.31
2024-02-22T06:56:00.260Z,34.44
2024-02-22T06:57:00.124Z,34.63
2024-02-22T06:58:00.119Z,34.80
2024-02-22T06:59:00.184Z,34.93
2024-02-22T07:00:00.247Z,35.19
2024-02-22T07:01:00.150Z,35.32
2024-02-22T07:02:00.145Z,35.24
2024-02-22T07:03:02.830Z,35.31
2024-02-22T07:04:00.238Z,35.61
2024-02-22T07:05:00.170Z,35.78
2024-02-22T07:06:00.119Z,36.03
2024-02-22T07:07:00.160Z,36.03
2024-02-22T07:08:00.275Z,36.08
2024-02-22T07:09:00.166Z,36.09
2024-02-22T07:10:00.191Z,36.33
2024-02-22T07:11:00.217Z,36.85
2024-02-22T07:12:00.192Z,37.01
2024-02-22T07:13:00.192Z,36.60
2024-02-22T07:14:00.268Z,36.48
2024-02-22T07:15:00.141Z,36.20
2024-02-22T07:16:00.170Z,36.34
2024-02-22T07:17:00.257Z,36.17
2024-02-22T07:18:00.299Z,36.33
2024-02-22T07:19:00.220Z,35.99
2024-02-22T07:20:00.271Z,36.33
2024-02-22T07:21:00.128Z,36.22
2024-02-22T07:22:00.171Z,36.31
2024-02-22T07:23:00.185Z,36.63
2024-02-22T07:24:00.212Z,36.59
2024-02-22T07:25:00.202Z,36.66
2024-02-22T07:26:00.194Z,36.84
2024-02-22T07:27:00.313Z,36.81
2024-02-22T07:28:00.317Z,36.87
2024-02-22T07:29:02.329Z,37.01
2024-02-22T07:30:00.508Z,37.20
2024-02-22T07:31:00.507Z,37.20
2024-02-22T07:32:00.619Z,37.44
2024-02-22T07:33:00.715Z,37.54
2024-02-22T07:34:00.873Z,37.82
2024-02-22T07:35:00.782Z,37.58
2024-02-22T07:36:00.808Z,37.43
2024-02-22T07:37:00.870Z,37.17
2024-02-22T07:38:00.989Z,36.83
2024-02-22T07:39:00.994Z,36.82
2024-02-22T07:40:01.098Z,36.67
2024-02-22T07:41:01.136Z,36.87
2024-02-22T07:42:01.765Z,36.92
2024-02-22T07:43:01.240Z,37.15
2024-02-22T07:44:01.388Z,37.13
2024-02-22T07:45:01.331Z,37.16
2024-02-22T07:46:01.530Z,37.19
2024-02-22T07:47:01.890Z,37.34
2024-02-22T07:48:01.691Z,37.36
2024-02-22T07:49:01.658Z,37.29
2024-02-22T07:50:01.838Z,37.17
2024-02-22T07:51:01.748Z,37.08
2024-02-22T07:52:01.751Z,37.07
2024-02-22T07:53:01.856Z,37.06
2024-02-22T07:54:01.885Z,36.93
2024-02-22T07:55:01.913Z,36.98
2024-02-22T07:56:02.029Z,36.95
2024-02-22T07:57:02.050Z,36.87
2024-02-22T07:58:02.134Z,36.85
2024-02-22T07:59:02.212Z,37.11
2024-02-22T08:00:02.325Z,37.00
2024-02-22T08:01:02.362Z,36.93
2024-02-22T08:02:02.448Z,37.11
2024-02-22T08:03:02.472Z,37.08
2024-02-22T08:04:02.597Z,37.00
2024-02-22T08:05:02.788Z,37.18
2024-02-22T08:06:02.570Z,37.08
2024-02-22T08:07:02.691Z,37.07
2024-02-22T08:08:02.747Z,37.07
2024-02-22T08:09:02.752Z,37.15
2024-02-22T08:10:02.843Z,37.21
2024-02-22T08:11:02.908Z,36.97
2024-02-22T08:12:03.004Z,37.09
2024-02-22T08:13:02.966Z,36.93
2024-02-22T08:14:03.079Z,36.76
2024-02-22T08:15:03.072Z,36.95
2024-02-22T08:16:03.139Z,36.96
2024-02-22T08:17:03.229Z,36.92
2024-02-22T08:18:03.280Z,36.70
2024-02-22T08:19:03.324Z,36.74
2024-02-22T08:20:03.449Z,36.74
2024-02-22T08:21:03.520Z,36.81
2024-02-22T08:22:03.766Z,36.66
2024-02-22T08:23:03.861Z,36.76
2024-02-22T08:24:03.628Z,36.77
2024-02-22T08:25:03.689Z,36.80
2024-02-22T08:26:03.847Z,36.95
2024-02-22T08:27:03.751Z,36.87
2024-02-22T08:28:07.489Z,36.86
2024-02-22T08:29:03.928Z,36.89
2024-02-22T08:30:03.799Z,37.19
2024-02-22T08:31:03.824Z,37.08
2024-02-22T08:32:04.344Z,37.22
2024-02-22T08:33:03.983Z,37.08
2024-02-22T08:34:04.414Z,36.98
2024-02-22T08:35:03.917Z,36.84
2024-02-22T08:36:03.830Z,36.88
2024-02-22T08:37:03.824Z,36.92
2024-02-22T08:38:03.908Z,36.86
2024-02-22T08:39:04.291Z,36.92
2024-02-22T08:40:15.515Z,36.73
2024-02-22T08:41:04.897Z,36.94
2024-02-22T08:42:03.820Z,36.76
2024-02-22T08:43:03.878Z,36.93
2024-02-22T08:44:03.888Z,37.21
2024-02-22T08:45:03.841Z,37.06
2024-02-22T08:46:03.804Z,37.14
2024-02-22T08:47:04.378Z,37.31
2024-02-22T08:48:04.270Z,37.19
2024-02-22T08:49:04.312Z,37.24
2024-02-22T08:50:03.942Z,37.29
2024-02-22T08:51:03.863Z,37.31
2024-02-22T08:52:03.888Z,37.46
2024-02-22T08:53:04.164Z,37.39
2024-02-22T08:54:04.289Z,37.56
2024-02-22T08:55:04.070Z,37.57
2024-02-22T08:56:04.175Z,37.71
2024-02-22T08:57:04.841Z,37.86
2024-02-22T08:58:04.289Z,37.55
2024-02-22T08:59:04.820Z,37.57
2024-02-22T09:00:04.369Z,37.70
2024-02-22T09:01:04.464Z,37.71
2024-02-22T09:02:04.537Z,37.72
2024-02-22T09:03:04.550Z,37.84
2024-02-22T09:04:04.709Z,37.99
2024-02-22T09:05:04.776Z,37.66
2024-02-22T09:06:04.771Z,37.70
2024-02-22T09:07:04.838Z,37.75
2024-02-22T09:08:04.956Z,37.84
2024-02-22T09:09:04.888Z,37.72
2024-02-22T09:10:04.946Z,37.80
2024-02-22T09:11:05.128Z,37.68
2024-02-22T09:12:05.142Z,37.54
2024-02-22T09:13:05.120Z,37.48
2024-02-22T09:14:05.187Z,37.42
2024-02-22T09:15:05.245Z,37.46
2024-02-22T09:16:05.278Z,37.29
2024-02-22T09:17:05.418Z,37.41
2024-02-22T09:18:05.578Z,37.36
2024-02-22T09:19:05.470Z,37.27
2024-02-22T09:20:05.576Z,36.68
2024-02-22T09:21:05.547Z,36.47
2024-02-22T09:22:05.595Z,36.65
2024-02-22T09:23:05.664Z,36.22
2024-02-22T09:24:05.651Z,36.08
2024-02-22T09:25:05.706Z,35.74
2024-02-22T09:26:05.796Z,35.09
2024-02-22T09:27:05.746Z,34.64
2024-02-22T09:28:05.764Z,34.19
2024-02-22T09:29:06.364Z,34.16
2024-02-22T09:30:05.920Z,33.52
2024-02-22T09:31:05.852Z,32.62
2024-02-22T09:32:06.329Z,31.92
2024-02-22T09:33:06.736Z,31.86
2024-02-22T09:34:06.162Z,31.55
2024-02-22T09:35:06.105Z,30.47
2024-02-22T09:36:06.203Z,29.71
2024-02-22T09:37:06.123Z,29.34
2024-02-22T09:38:06.502Z,28.92
2024-02-22T09:39:06.153Z,29.31
2024-02-22T09:40:06.250Z,29.40
2024-02-22T09:41:06.287Z,28.26
2024-02-22T09:42:06.314Z,27.75
2024-02-22T09:43:06.369Z,27.95
2024-02-22T09:44:06.528Z,27.73
2024-02-22T09:45:06.497Z,27.15
2024-02-22T09:46:06.518Z,26.77
2024-02-22T09:47:06.843Z,26.83
2024-02-22T09:48:06.616Z,26.89
2024-02-22T09:49:08.403Z,27.59
2024-02-22T09:50:06.629Z,27.84
2024-02-22T09:51:06.579Z,28.37
2024-02-22T09:52:06.701Z,28.37
2024-02-22T09:53:06.677Z,28.60
2024-02-22T09:54:06.712Z,29.08
2024-02-22T09:55:06.729Z,29.72
2024-02-22T09:56:06.880Z,30.36
2024-02-22T09:57:06.861Z,30.72
2024-02-22T09:58:06.837Z,31.19
2024-02-22T09:59:06.915Z,31.36
2024-02-22T10:00:06.901Z,32.04
2024-02-22T10:01:07.008Z,32.18
2024-02-22T10:02:07.029Z,32.75
2024-02-22T10:03:07.093Z,33.18
2024-02-22T10:04:07.104Z,33.61
2024-02-22T10:05:07.424Z,34.29
2024-02-22T10:06:07.287Z,34.50
2024-02-22T10:07:07.344Z,34.63
2024-02-22T10:08:07.356Z,35.11
2024-02-22T10:09:07.303Z,35.15
2024-02-22T10:10:07.311Z,35.85
2024-02-22T10:11:07.482Z,36.00
2024-02-22T10:12:07.724Z,36.21
2024-02-22T10:13:08.462Z,36.50
2024-02-22T10:14:07.451Z,36.62
2024-02-22T10:15:09.150Z,36.76
2024-02-22T10:16:07.377Z,36.75
2024-02-22T10:17:07.426Z,36.75
2024-02-22T10:18:07.486Z,36.68
2024-02-22T10:19:07.496Z,37.05
2024-02-22T10:20:07.490Z,37.21
2024-02-22T10:21:07.524Z,37.44
2024-02-22T10:22:07.531Z,37.73
2024-02-22T10:23:07.603Z,37.68
2024-02-22T10:24:07.545Z,37.52
2024-02-22T10:25:07.576Z,37.59
2024-02-22T10:26:07.613Z,38.20
2024-02-22T10:27:09.194Z,38.53
2024-02-22T10:28:07.643Z,38.15
2024-02-22T10:29:07.731Z,38.27
2024-02-22T10:30:07.693Z,38.38
2024-02-22T10:31:07.700Z,38.37
2024-02-22T10:32:07.891Z,38.21
2024-02-22T10:33:07.857Z,38.32
2024-02-22T10:34:07.904Z,38.31
2024-02-22T10:35:07.846Z,38.62
2024-02-22T10:36:07.829Z,38.32
2024-02-22T10:37:08.337Z,37.91
2024-02-22T10:38:07.918Z,38.06
2024-02-22T10:39:07.921Z,37.75
2024-02-22T10:40:07.951Z,37.67
2024-02-22T10:41:08.139Z,37.33
2024-02-22T10:42:08.334Z,37.39
2024-02-22T10:43:08.102Z,37.23
2024-02-22T10:44:08.257Z,37.18
2024-02-22T10:45:08.225Z,37.17
2024-02-22T10:46:08.318Z,37.33
2024-02-22T10:47:08.360Z,37.21
2024-02-22T10:48:08.513Z,37.38
2024-02-22T10:49:08.611Z,37.41
2024-02-22T10:50:08.739Z,37.37
2024-02-22T10:51:08.557Z,37.50
2024-02-22T10:52:08.631Z,37.41
2024-02-22T10:53:08.667Z,37.44
2024-02-22T10:54:08.700Z,37.41
2024-02-22T10:55:08.792Z,37.37
2024-02-22T10:56:08.915Z,37.36
2024-02-22T10:57:08.889Z,37.35
2024-02-22T10:58:08.952Z,37.43
2024-02-22T10:59:09.072Z,37.35
2024-02-22T11:00:09.102Z,37.40
2024-02-22T11:01:09.146Z,37.36
2024-02-22T11:02:09.257Z,37.25
2024-02-22T11:03:09.208Z,37.21
2024-02-22T11:04:09.288Z,37.19
2024-02-22T11:05:09.361Z,37.18
2024-02-22T11:06:09.501Z,37.18
2024-02-22T11:07:09.550Z,37.20
2024-02-22T11:08:09.522Z,37.19
2024-02-22T11:09:09.569Z,37.16
2024-02-22T11:10:09.618Z,37.07
2024-02-22T11:11:09.886Z,37.09
2024-02-22T11:12:09.741Z,37.07
2024-02-22T11:13:09.808Z,36.99
2024-02-22T11:14:09.941Z,37.05
2024-02-22T11:15:09.929Z,37.01
2024-02-22T11:16:09.970Z,36.91
2024-02-22T11:17:10.072Z,36.90
2024-02-22T11:18:10.195Z,36.93
2024-02-22T11:19:10.384Z,36.91
2024-02-22T11:20:10.270Z,36.87
2024-02-22T11:21:10.275Z,36.84
2024-02-22T11:22:10.351Z,36.79
2024-02-22T11:23:10.518Z,36.77
2024-02-22T11:24:10.536Z,36.65
2024-02-22T11:25:10.524Z,37.07
2024-02-22T11:26:10.661Z,36.97
2024-02-22T11:27:10.668Z,36.90
2024-02-22T11:28:10.973Z,37.17
2024-02-22T11:29:10.885Z,36.82
2024-02-22T11:30:10.813Z,34.29
2024-02-22T11:31:10.876Z,36.70
2024-02-22T11:32:10.956Z,34.85
2024-02-22T11:33:11.450Z,32.99
2024-02-22T11:34:11.080Z,30.86
2024-02-22T11:35:11.169Z,27.05
2024-02-22T11:36:11.151Z,29.43
2024-02-22T11:37:11.177Z,31.27
2024-02-22T11:38:11.292Z,30.70
2024-02-22T11:39:11.331Z,30.15
2024-02-22T11:40:11.405Z,31.34
2024-02-22T11:41:11.457Z,30.92
2024-02-22T11:42:11.470Z,31.98
2024-02-22T11:43:11.878Z,31.91
2024-02-22T11:44:11.576Z,30.96
2024-02-22T11:45:11.592Z,30.67
2024-02-22T11:46:11.636Z,30.15
2024-02-22T11:47:11.740Z,30.47
2024-02-22T11:48:12.024Z,30.35
2024-02-22T11:49:11.876Z,31.05
2024-02-22T11:50:11.852Z,31.43
2024-02-22T11:51:14.139Z,27.21
2024-02-22T11:52:12.362Z,27.66
2024-02-22T11:53:11.904Z,27.92
2024-02-22T11:54:11.871Z,27.83
2024-02-22T11:55:11.867Z,29.72
2024-02-22T11:56:11.910Z,29.30
2024-02-22T11:57:14.929Z,29.58
2024-02-22T11:58:11.868Z,29.77
2024-02-22T11:59:11.950Z,30.15
2024-02-22T12:00:11.908Z,28.95
2024-02-22T12:01:11.899Z,29.20
2024-02-22T12:02:11.942Z,29.01
2024-02-22T12:03:14.987Z,30.45
2024-02-22T12:04:11.908Z,30.26
2024-02-22T12:05:12.073Z,30.63
2024-02-22T12:06:12.052Z,30.85
2024-02-22T12:07:11.915Z,30.11
2024-02-22T12:08:11.891Z,30.39
2024-02-22T12:09:14.867Z,29.99
2024-02-22T12:10:11.885Z,30.66
2024-02-22T12:11:11.961Z,30.79
2024-02-22T12:12:12.018Z,30.90
2024-02-22T12:13:11.900Z,30.93
2024-02-22T12:14:11.948Z,30.15
2024-02-22T12:15:15.486Z,30.68
2024-02-22T12:16:12.204Z,29.87
2024-02-22T12:17:12.281Z,30.65
2024-02-22T12:18:11.937Z,30.58
2024-02-22T12:19:11.936Z,30.47
2024-02-22T12:20:11.939Z,30.40
2024-02-22T12:21:11.924Z,30.03
2024-02-22T12:22:11.934Z,30.10
2024-02-22T12:23:11.946Z,29.88
2024-02-22T12:24:11.909Z,29.56
2024-02-22T12:25:11.972Z,28.99
2024-02-22T12:26:11.948Z,28.97
2024-02-22T12:27:11.938Z,28.95
2024-02-22T12:28:12.382Z,29.17
2024-02-22T12:29:11.957Z,29.32
2024-02-22T12:30:11.974Z,29.24
2024-02-22T12:31:12.874Z,29.08
2024-02-22T12:32:12.013Z,29.06
2024-02-22T12:33:12.976Z,29.03
2024-02-22T12:34:11.956Z,29.19
2024-02-22T12:35:11.964Z,29.30
2024-02-22T12:36:11.924Z,29.32
2024-02-22T12:37:11.935Z,29.26
2024-02-22T12:38:11.996Z,29.39
2024-02-22T12:39:11.931Z,29.37
2024-02-22T12:40:11.951Z,29.45
2024-02-22T12:41:12.022Z,29.50
2024-02-22T12:42:11.923Z,29.59
2024-02-22T12:43:13.561Z,29.54
2024-02-22T12:44:12.023Z,29.51
2024-02-22T12:45:11.929Z,29.12
2024-02-22T12:46:11.942Z,29.50
2024-02-22T12:47:12.014Z,29.46
2024-02-22T12:48:12.145Z,29.11
2024-02-22T12:49:12.079Z,29.28
2024-02-22T12:50:12.096Z,29.22
2024-02-22T12:51:12.123Z,29.32
2024-02-22T12:52:12.126Z,29.35
2024-02-22T12:53:12.180Z,29.34